createdAt,value
2022-11-04T00:00:54.571Z,11.60
2022-11-04T00:03:21.363Z,11.38
2022-11-04T00:05:48.051Z,11.82
2022-11-04T00:08:14.780Z,12.23
2022-11-04T00:10:41.459Z,12.70
2022-11-04T00:13:08.435Z,12.48
2022-11-04T00:15:38.159Z,13.38
2022-11-04T00:18:04.877Z,11.82
2022-11-04T00:20:31.558Z,13.40
2022-11-04T00:22:58.303Z,13.82
2022-11-04T00:25:25.617Z,13.30
2022-11-04T00:27:52.290Z,13.68
2022-11-04T00:30:18.988Z,12.98
2022-11-04T00:32:45.665Z,13.55
2022-11-04T00:35:13.121Z,13.20
2022-11-04T00:37:41.616Z,13.13
2022-11-04T00:40:10.306Z,12.50
2022-11-04T00:42:37.052Z,12.68
2022-11-04T00:45:04.518Z,12.98
2022-11-04T00:47:31.218Z,12.45
2022-11-04T00:49:58.145Z,12.88
2022-11-04T00:52:24.977Z,13.23
2022-11-04T00:54:51.711Z,13.15
2022-11-04T00:57:18.677Z,14.25
2022-11-04T00:59:45.402Z,12.95
2022-11-04T01:02:12.703Z,13.40
2022-11-04T01:04:39.542Z,12.95
2022-11-04T01:07:06.379Z,13.38
2022-11-04T01:09:33.093Z,13.23
2022-11-04T01:11:59.769Z,13.00
2022-11-04T01:14:26.628Z,13.38
2022-11-04T01:16:53.387Z,14.10
2022-11-04T01:19:20.095Z,13.32
2022-11-04T01:21:49.902Z,14.20
2022-11-04T01:24:16.608Z,13.70
2022-11-04T01:26:43.440Z,12.60
2022-11-04T01:29:10.223Z,13.73
2022-11-04T01:31:36.911Z,14.43
2022-11-04T01:34:03.885Z,13.45
2022-11-04T01:36:32.873Z,13.70
2022-11-04T01:38:59.488Z,13.70
2022-11-04T01:41:32.075Z,14.10
2022-11-04T01:44:01.586Z,14.50
2022-11-04T01:46:46.345Z,14.02
2022-11-04T01:49:37.902Z,14.02
2022-11-04T01:52:13.772Z,13.45
2022-11-04T01:54:42.968Z,14.18
2022-11-04T01:57:15.192Z,13.40
2022-11-04T01:59:42.718Z,14.25
2022-11-04T02:02:09.602Z,14.13
2022-11-04T02:04:37.129Z,14.48
2022-11-04T02:07:07.281Z,14.38
2022-11-04T02:09:36.978Z,14.82
2022-11-04T02:12:03.894Z,13.88
2022-11-04T02:14:31.969Z,14.35
2022-11-04T02:17:19.815Z,14.15
2022-11-04T02:20:17.424Z,13.82
2022-11-04T02:22:59.142Z,14.77
2022-11-04T02:25:42.849Z,14.05
2022-11-04T02:28:51.221Z,14.43
2022-11-04T02:31:36.084Z,14.18
2022-11-04T02:34:27.275Z,14.77
2022-11-04T02:37:27.064Z,14.32
2022-11-04T02:40:43.130Z,15.15
2022-11-04T02:43:25.353Z,14.63
2022-11-04T02:46:03.033Z,14.52
2022-11-04T02:48:41.882Z,15.25
2022-11-04T02:51:22.428Z,16.17
2022-11-04T02:54:19.549Z,13.85
2022-11-04T02:56:50.569Z,15.07
2022-11-04T02:59:27.983Z,15.23
2022-11-04T03:01:57.165Z,14.75
2022-11-04T03:04:32.021Z,14.90
2022-11-04T03:07:01.266Z,14.43
2022-11-04T03:09:30.591Z,14.80
2022-11-04T03:12:03.489Z,15.60
2022-11-04T03:14:51.538Z,14.48
2022-11-04T03:17:41.638Z,14.88
2022-11-04T03:20:16.985Z,15.13
2022-11-04T03:22:43.813Z,15.30
2022-11-04T03:25:10.847Z,15.45
2022-11-04T03:27:46.340Z,15.13
2022-11-04T03:30:19.358Z,15.63
2022-11-04T03:32:55.084Z,15.13
2022-11-04T03:37:49.218Z,15.13
2022-11-04T03:40:18.208Z,14.77
2022-11-04T03:42:58.081Z,14.38
2022-11-04T03:45:25.829Z,14.30
2022-11-04T03:47:53.195Z,15.20
2022-11-04T03:50:23.734Z,15.88
2022-11-04T03:52:50.451Z,14.35
2022-11-04T03:55:17.442Z,14.70
2022-11-04T03:57:48.701Z,16.33
2022-11-04T04:00:23.643Z,15.50
2022-11-04T04:03:06.232Z,15.60
2022-11-04T04:05:44.786Z,15.27
2022-11-04T04:11:41.194Z,15.15
2022-11-04T04:16:59.033Z,15.98
2022-11-04T04:19:25.928Z,15.32
2022-11-04T04:22:01.763Z,15.80
2022-11-04T04:24:36.154Z,15.77
2022-11-04T04:27:03.656Z,15.45
2022-11-04T04:29:30.957Z,16.40
2022-11-04T04:31:59.334Z,15.95
2022-11-04T04:34:31.597Z,17.55
2022-11-04T04:37:13.704Z,15.82
2022-11-04T04:39:46.912Z,15.55
2022-11-04T04:42:13.736Z,15.57
2022-11-04T04:44:42.285Z,15.30
2022-11-04T04:47:11.137Z,15.85
2022-11-04T04:49:48.826Z,16.17
2022-11-04T04:52:15.540Z,16.42
2022-11-04T04:54:42.186Z,16.30
2022-11-04T04:57:08.772Z,16.13
2022-11-04T04:59:35.433Z,15.52
2022-11-04T05:02:02.282Z,15.88
2022-11-04T05:04:29.066Z,16.13
2022-11-04T05:06:55.947Z,15.88
2022-11-04T05:09:22.559Z,16.55
2022-11-04T05:11:49.341Z,16.42
2022-11-04T05:14:15.999Z,16.08
2022-11-04T05:16:42.678Z,15.95
2022-11-04T05:19:09.429Z,15.82
2022-11-04T05:21:36.685Z,15.68
2022-11-04T05:24:03.420Z,16.73
2022-11-04T05:26:30.093Z,16.27
2022-11-04T05:28:56.788Z,16.25
2022-11-04T05:31:23.916Z,16.80
2022-11-04T05:33:50.576Z,16.00
2022-11-04T05:36:20.380Z,15.98
2022-11-04T05:38:51.674Z,15.98
2022-11-04T05:41:18.939Z,16.02
2022-11-04T05:43:45.571Z,15.95
2022-11-04T05:46:12.239Z,16.25
2022-11-04T05:48:40.689Z,16.15
2022-11-04T05:51:07.695Z,16.17
2022-11-04T05:53:36.370Z,16.25
2022-11-04T05:56:03.196Z,16.67
2022-11-04T05:58:29.857Z,17.70
2022-11-04T06:01:24.002Z,17.45
2022-11-04T06:03:54.697Z,16.17
2022-11-04T06:06:22.869Z,16.60
2022-11-04T06:08:52.972Z,16.92
2022-11-04T06:11:21.014Z,17.55
2022-11-04T06:13:48.122Z,16.98
2022-11-04T06:16:15.024Z,17.20
2022-11-04T06:18:41.805Z,17.20
2022-11-04T06:21:22.013Z,17.45
2022-11-04T06:23:49.047Z,18.70
2022-11-04T06:26:18.119Z,17.48
2022-11-04T06:28:45.027Z,17.85
2022-11-04T06:31:13.521Z,19.00
2022-11-04T06:33:40.880Z,17.60
2022-11-04T06:36:09.123Z,17.77
2022-11-04T06:38:40.018Z,18.13
2022-11-04T06:41:09.230Z,17.00
2022-11-04T06:43:35.912Z,18.17
2022-11-04T06:46:03.155Z,19.50
2022-11-04T06:48:30.842Z,24.23
2022-11-04T06:50:59.080Z,21.38
2022-11-04T06:53:26.923Z,19.27
2022-11-04T06:55:53.998Z,17.98
2022-11-04T06:58:20.714Z,18.88
2022-11-04T07:00:53.402Z,18.92
2022-11-04T07:03:20.151Z,18.73
2022-11-04T07:05:46.863Z,18.58
2022-11-04T07:08:13.654Z,18.25
2022-11-04T07:10:40.425Z,18.40
2022-11-04T07:13:07.065Z,19.60
2022-11-04T07:15:34.102Z,18.77
2022-11-04T07:18:00.951Z,19.55
2022-11-04T07:20:28.265Z,20.38
2022-11-04T07:22:58.283Z,19.90
2022-11-04T07:25:28.234Z,19.90
2022-11-04T07:27:56.726Z,22.30
2022-11-04T07:30:26.560Z,21.20
2022-11-04T07:32:53.466Z,22.23
2022-11-04T07:35:20.088Z,23.73
2022-11-04T07:37:46.720Z,24.38
2022-11-04T07:40:13.449Z,24.38
2022-11-04T07:42:40.554Z,23.98
2022-11-04T07:45:07.917Z,24.27
2022-11-04T07:47:34.756Z,24.50
2022-11-04T07:50:06.716Z,24.02
2022-11-04T07:52:37.580Z,25.30
2022-11-04T07:55:04.670Z,25.15
2022-11-04T07:57:31.415Z,24.50
2022-11-04T07:59:58.308Z,24.13
2022-11-04T08:02:28.658Z,25.02
2022-11-04T08:05:00.862Z,25.90
2022-11-04T08:07:27.607Z,22.67
2022-11-04T08:09:54.334Z,24.65
2022-11-04T08:12:21.026Z,23.80
2022-11-04T08:14:47.802Z,23.48
2022-11-04T08:17:14.469Z,25.00
2022-11-04T08:19:41.287Z,22.50
2022-11-04T08:22:08.005Z,23.13
2022-11-04T08:24:35.047Z,22.67
2022-11-04T08:27:02.184Z,23.00
2022-11-04T08:29:28.889Z,22.40
2022-11-04T08:31:55.552Z,24.10
2022-11-04T08:34:22.204Z,25.73
2022-11-04T08:36:48.871Z,23.77
2022-11-04T08:39:15.641Z,21.85
2022-11-04T08:41:43.490Z,22.77
2022-11-04T08:44:12.370Z,21.02
2022-11-04T08:46:40.157Z,20.13
2022-11-04T08:49:10.597Z,20.60
2022-11-04T08:51:43.381Z,19.30
2022-11-04T08:54:10.454Z,18.23
2022-11-04T08:56:44.941Z,18.33
2022-11-04T08:59:11.702Z,17.73
2022-11-04T09:01:38.864Z,18.13
2022-11-04T09:04:06.486Z,16.98
2022-11-04T09:06:36.731Z,18.02
2022-11-04T09:09:05.792Z,16.83
2022-11-04T09:11:36.439Z,17.25
2022-11-04T09:14:03.552Z,15.48
2022-11-04T09:16:33.348Z,15.20
2022-11-04T09:19:00.465Z,15.85
2022-11-04T09:21:27.891Z,14.75
2022-11-04T09:23:54.944Z,15.10
2022-11-04T09:26:22.961Z,15.18
2022-11-04T09:28:57.469Z,14.35
2022-11-04T09:31:25.467Z,15.48
2022-11-04T09:33:53.952Z,16.20
2022-11-04T09:36:21.183Z,15.85
2022-11-04T09:38:48.126Z,17.17
2022-11-04T09:41:33.642Z,18.23
2022-11-04T09:44:09.489Z,17.75
2022-11-04T09:46:38.023Z,17.55
2022-11-04T09:49:08.393Z,18.38
2022-11-04T09:51:53.796Z,17.15
2022-11-04T09:54:46.813Z,18.75
2022-11-04T09:57:18.975Z,18.83
2022-11-04T09:59:46.628Z,16.38
2022-11-04T10:02:22.371Z,18.75
2022-11-04T10:05:07.889Z,16.23
2022-11-04T10:07:43.334Z,14.27
2022-11-04T10:10:42.728Z,14.15
2022-11-04T10:13:19.934Z,13.80
2022-11-04T10:15:57.784Z,12.75
2022-11-04T10:18:24.354Z,12.35
2022-11-04T10:21:26.826Z,12.50
2022-11-04T10:24:07.704Z,12.30
2022-11-04T10:26:44.443Z,12.63
2022-11-04T10:29:22.238Z,12.20
2022-11-04T10:31:54.333Z,12.23
2022-11-04T10:34:56.744Z,12.30
2022-11-04T10:37:25.319Z,12.82
2022-11-04T10:40:09.625Z,12.95
2022-11-04T10:43:06.997Z,13.90
2022-11-04T10:45:46.633Z,15.32
2022-11-04T10:48:22.508Z,16.17
2022-11-04T10:50:58.067Z,18.33
2022-11-04T10:53:29.999Z,16.90
2022-11-04T10:56:15.453Z,15.23
2022-11-04T10:58:53.552Z,14.63
2022-11-04T11:01:34.917Z,16.25
2022-11-04T11:04:06.877Z,14.25
2022-11-04T11:06:35.787Z,14.45
2022-11-04T11:09:18.420Z,13.88
2022-11-04T11:11:48.895Z,13.43
2022-11-04T11:14:16.651Z,13.60
2022-11-04T11:16:43.400Z,13.80
2022-11-04T11:19:28.435Z,13.80
2022-11-04T11:21:57.342Z,13.43
2022-11-04T11:24:26.533Z,14.15
2022-11-04T11:26:58.565Z,13.00
2022-11-04T11:29:26.917Z,12.73
2022-11-04T11:31:56.366Z,12.57
2022-11-04T11:34:31.076Z,13.20
2022-11-04T11:36:59.356Z,13.05
2022-11-04T11:39:28.538Z,14.75
2022-11-04T11:42:12.681Z,14.57
2022-11-04T11:44:52.422Z,14.27
2022-11-04T11:47:25.282Z,15.50
2022-11-04T11:50:19.671Z,16.15
2022-11-04T11:52:50.665Z,17.08
2022-11-04T11:55:36.234Z,17.98
2022-11-04T12:01:25.686Z,22.70
2022-11-04T12:10:04.740Z,24.85
2022-11-04T12:13:23.366Z,22.58
2022-11-04T12:16:23.092Z,21.73
2022-11-04T12:19:14.861Z,22.05
2022-11-04T12:22:09.187Z,20.48
2022-11-04T12:24:35.845Z,18.42
2022-11-04T12:27:16.279Z,17.00
2022-11-04T12:29:52.278Z,20.42
2022-11-04T12:32:18.938Z,19.15
2022-11-04T12:35:05.535Z,22.77
2022-11-04T12:37:59.620Z,16.63
2022-11-04T12:40:39.072Z,18.10
2022-11-04T12:43:24.539Z,16.92
2022-11-04T12:45:54.211Z,17.35
2022-11-04T12:48:23.842Z,18.90
2022-11-04T12:51:13.627Z,16.30
2022-11-04T12:54:16.212Z,19.35
2022-11-04T12:56:42.943Z,16.90
2022-11-04T12:59:33.993Z,17.40
2022-11-04T13:02:34.046Z,16.88
2022-11-04T13:05:05.484Z,19.25
2022-11-04T13:07:56.049Z,18.13
2022-11-04T13:10:30.289Z,17.75
2022-11-04T13:12:58.541Z,17.08
2022-11-04T13:15:28.673Z,17.88
2022-11-04T13:18:00.385Z,17.25
2022-11-04T13:20:39.142Z,16.73
2022-11-04T13:23:13.670Z,19.65
2022-11-04T13:25:46.295Z,17.35
2022-11-04T13:28:15.392Z,16.90
2022-11-04T13:31:05.898Z,16.40
2022-11-04T13:33:47.796Z,14.57
2022-11-04T13:36:25.471Z,15.73
2022-11-04T13:39:01.675Z,16.27
2022-11-04T13:41:40.771Z,15.27
2022-11-04T13:44:20.727Z,16.27
2022-11-04T13:46:52.171Z,15.10
2022-11-04T13:49:23.670Z,15.68
2022-11-04T13:52:10.331Z,15.63
2022-11-04T13:54:52.520Z,14.73
2022-11-04T13:57:21.736Z,15.45
2022-11-04T14:00:13.135Z,15.75
2022-11-04T14:02:42.924Z,15.02
2022-11-04T14:05:37.200Z,16.50
2022-11-04T14:08:03.801Z,17.20
2022-11-04T14:10:49.728Z,19.45
2022-11-04T14:13:28.508Z,18.25
2022-11-04T14:16:03.286Z,16.48
2022-11-04T14:18:37.145Z,16.90
2022-11-04T14:21:16.319Z,17.88
2022-11-04T14:23:50.157Z,18.05
2022-11-04T14:26:20.105Z,20.58
2022-11-04T14:29:09.801Z,18.63
2022-11-04T14:31:44.371Z,18.65
2022-11-04T14:34:31.259Z,18.92
2022-11-04T14:37:00.549Z,20.02
2022-11-04T14:39:40.248Z,18.27
2022-11-04T14:42:11.256Z,19.65
2022-11-04T14:44:54.018Z,20.63
2022-11-04T14:47:25.551Z,19.40
2022-11-04T14:49:58.251Z,20.00
2022-11-04T14:53:02.484Z,20.23
2022-11-04T14:58:31.305Z,19.83
2022-11-04T15:01:03.343Z,18.13
2022-11-04T15:04:10.037Z,18.15
2022-11-04T15:06:40.373Z,18.63
2022-11-04T15:09:26.572Z,19.90
2022-11-04T15:12:12.305Z,16.80
2022-11-04T15:14:39.048Z,18.92
2022-11-04T15:17:05.741Z,19.73
2022-11-04T15:19:36.189Z,19.42
2022-11-04T15:22:06.909Z,18.02
2022-11-04T15:24:43.864Z,17.60
2022-11-04T15:27:17.767Z,17.75
2022-11-04T15:30:05.093Z,18.05
2022-11-04T15:32:32.332Z,16.27
2022-11-04T15:34:59.657Z,17.60
2022-11-04T15:37:27.502Z,16.88
2022-11-04T15:39:57.745Z,17.05
2022-11-04T15:42:28.360Z,19.10
2022-11-04T15:44:56.026Z,18.58
2022-11-04T15:47:25.764Z,16.77
2022-11-04T15:49:53.821Z,18.63
2022-11-04T15:52:26.951Z,18.08
2022-11-04T15:54:55.615Z,17.33
2022-11-04T15:57:29.798Z,17.25
2022-11-04T16:00:03.948Z,16.98
2022-11-04T16:02:40.701Z,16.48
2022-11-04T16:05:27.643Z,16.85
2022-11-04T16:07:56.818Z,16.98
2022-11-04T16:10:29.054Z,17.00
2022-11-04T16:13:03.932Z,16.80
2022-11-04T16:15:39.765Z,17.83
2022-11-04T16:20:34.756Z,16.73
2022-11-04T16:23:03.021Z,17.30
2022-11-04T16:25:36.087Z,17.17
2022-11-04T16:28:03.498Z,17.52
2022-11-04T16:30:30.567Z,16.95
2022-11-04T16:33:09.574Z,17.98
2022-11-04T16:35:36.564Z,15.48
2022-11-04T16:38:03.341Z,15.75
2022-11-04T16:40:30.027Z,15.18
2022-11-04T16:42:57.620Z,16.33
2022-11-04T16:45:36.530Z,16.10
2022-11-04T16:48:04.473Z,16.55
2022-11-04T16:50:31.825Z,16.50
2022-11-04T16:52:58.932Z,15.82
2022-11-04T16:55:26.391Z,16.35
2022-11-04T16:58:01.045Z,16.23
2022-11-04T17:00:29.222Z,15.60
2022-11-04T17:02:55.931Z,15.40
2022-11-04T17:05:22.579Z,14.38
2022-11-04T17:08:10.211Z,14.75
2022-11-04T17:10:37.051Z,15.93
2022-11-04T17:13:03.771Z,14.35
2022-11-04T17:15:30.493Z,13.65
2022-11-04T17:21:14.895Z,14.60
2022-11-04T17:23:41.583Z,14.30
2022-11-04T17:26:09.060Z,14.43
2022-11-04T17:28:35.796Z,15.05
2022-11-04T17:31:02.605Z,14.68
2022-11-04T17:33:29.441Z,15.55
2022-11-04T17:36:02.205Z,16.10
2022-11-04T17:38:33.145Z,15.70
2022-11-04T17:40:59.809Z,15.98
2022-11-04T17:43:26.597Z,16.73
2022-11-04T17:45:53.229Z,15.98
2022-11-04T17:48:20.313Z,16.15
2022-11-04T17:50:47.063Z,16.38
2022-11-04T17:53:13.990Z,15.82
2022-11-04T17:55:41.040Z,16.48
2022-11-04T17:58:07.804Z,15.70
2022-11-04T18:00:34.624Z,15.95
2022-11-04T18:03:01.570Z,17.50
2022-11-04T18:05:28.395Z,17.42
2022-11-04T18:07:57.231Z,16.63
2022-11-04T18:10:23.946Z,16.30
2022-11-04T18:12:50.683Z,17.27
2022-11-04T18:15:20.525Z,17.25
2022-11-04T18:17:47.323Z,17.42
2022-11-04T18:20:15.612Z,17.45
2022-11-04T18:22:43.778Z,17.73
2022-11-04T18:25:12.417Z,16.38
2022-11-04T18:27:39.495Z,17.50
2022-11-04T18:30:07.151Z,18.25
2022-11-04T18:32:33.893Z,18.58
2022-11-04T18:35:00.692Z,17.95
2022-11-04T18:37:28.815Z,18.15
2022-11-04T18:39:55.707Z,20.05
2022-11-04T18:42:22.453Z,19.13
2022-11-04T18:44:49.212Z,20.33
2022-11-04T18:47:16.230Z,20.17
2022-11-04T18:49:42.949Z,22.13
2022-11-04T18:52:09.721Z,18.95
2022-11-04T18:54:36.539Z,21.35
2022-11-04T18:57:03.789Z,20.60
2022-11-04T18:59:30.570Z,23.23
2022-11-04T19:01:57.431Z,20.60
2022-11-04T19:04:24.269Z,20.63
2022-11-04T19:06:51.133Z,21.52
2022-11-04T19:12:05.558Z,22.75
2022-11-04T19:14:32.301Z,22.52
2022-11-04T19:16:59.011Z,21.05
2022-11-04T19:19:25.671Z,20.33
2022-11-04T19:21:52.392Z,21.45
2022-11-04T19:24:19.053Z,21.23
2022-11-04T19:26:45.939Z,23.20
2022-11-04T19:29:12.846Z,22.40
2022-11-04T19:31:39.590Z,22.98
2022-11-04T19:34:06.317Z,23.35
2022-11-04T19:36:34.444Z,22.58
2022-11-04T19:39:01.112Z,21.92
2022-11-04T19:41:28.284Z,21.73
2022-11-04T19:43:55.156Z,21.90
2022-11-04T19:46:22.280Z,22.27
2022-11-04T19:48:49.122Z,21.40
2022-11-04T19:51:15.827Z,23.35
2022-11-04T19:53:42.616Z,21.65
2022-11-04T19:56:14.554Z,21.55
2022-11-04T19:58:41.636Z,22.35
2022-11-04T20:01:09.115Z,21.95
2022-11-04T20:03:37.344Z,23.33
2022-11-04T20:06:04.283Z,23.63
2022-11-04T20:08:31.367Z,23.77
2022-11-04T20:11:02.191Z,24.48
2022-11-04T20:13:29.781Z,22.75
2022-11-04T20:15:56.548Z,26.05
2022-11-04T20:18:23.200Z,26.10
2022-11-04T20:20:49.982Z,23.35
2022-11-04T20:23:17.031Z,23.70
2022-11-04T20:25:43.767Z,23.98
2022-11-04T20:28:10.977Z,25.20
2022-11-04T20:30:38.842Z,24.17
2022-11-04T20:33:05.754Z,26.95
2022-11-04T20:35:34.633Z,26.33
2022-11-04T20:38:01.431Z,26.52
2022-11-04T20:40:28.243Z,27.42
2022-11-04T20:42:54.964Z,27.35
2022-11-04T20:45:21.793Z,27.23
2022-11-04T20:47:48.655Z,26.52
2022-11-04T20:50:16.387Z,26.67
2022-11-04T20:52:43.233Z,25.92
2022-11-04T20:55:10.702Z,25.48
2022-11-04T20:57:37.885Z,25.83
2022-11-04T21:00:05.307Z,24.73
2022-11-04T21:02:32.178Z,24.23
2022-11-04T21:04:59.094Z,23.48
2022-11-04T21:07:25.794Z,24.70
2022-11-04T21:09:52.665Z,24.55
2022-11-04T21:12:19.604Z,26.10
2022-11-04T21:14:46.276Z,25.00
2022-11-04T21:17:12.855Z,25.52
2022-11-04T21:19:39.638Z,25.55
2022-11-04T21:22:06.417Z,25.95
2022-11-04T21:24:38.848Z,27.20
2022-11-04T21:27:06.070Z,23.90
2022-11-04T21:29:32.688Z,23.75
2022-11-04T21:31:59.552Z,24.48
2022-11-04T21:34:26.346Z,23.48
2022-11-04T21:36:53.151Z,24.17
2022-11-04T21:39:23.014Z,24.67
2022-11-04T21:41:49.685Z,27.20
2022-11-04T21:44:16.452Z,27.45
2022-11-04T21:46:43.848Z,30.27
2022-11-04T21:49:12.279Z,30.90
2022-11-04T21:51:39.042Z,34.28
2022-11-04T21:54:07.153Z,32.15
2022-11-04T21:56:34.333Z,31.35
2022-11-04T21:59:01.285Z,30.95
2022-11-04T22:01:29.797Z,30.15
2022-11-04T22:03:59.105Z,29.95
2022-11-04T22:06:32.174Z,29.33
2022-11-04T22:09:00.753Z,32.30
2022-11-04T22:11:29.103Z,30.55
2022-11-04T22:13:57.734Z,29.33
2022-11-04T22:16:27.323Z,29.75
2022-11-04T22:18:55.844Z,30.70
2022-11-04T22:21:24.052Z,29.52
2022-11-04T22:23:51.206Z,31.45
2022-11-04T22:26:21.051Z,30.65
2022-11-04T22:28:48.458Z,30.35
2022-11-04T22:31:24.328Z,30.65
2022-11-04T22:33:51.624Z,28.52
2022-11-04T22:36:18.845Z,28.90
2022-11-04T22:38:45.663Z,29.35
2022-11-04T22:41:16.147Z,29.92
2022-11-04T22:43:42.915Z,30.90
2022-11-04T22:46:14.000Z,29.50
2022-11-04T22:48:41.009Z,30.25
2022-11-04T22:51:07.706Z,30.88
2022-11-04T22:53:34.605Z,29.80
2022-11-04T22:56:02.612Z,29.77
2022-11-04T22:58:29.952Z,29.23
2022-11-04T23:01:02.569Z,26.90
2022-11-04T23:03:29.575Z,27.95
2022-11-04T23:05:58.467Z,25.30
2022-11-04T23:08:27.063Z,24.10
2022-11-04T23:11:05.848Z,25.02
2022-11-04T23:13:32.475Z,24.58
2022-11-04T23:16:00.096Z,23.70
2022-11-04T23:18:26.859Z,26.73
2022-11-04T23:20:53.474Z,28.00
2022-11-04T23:23:20.116Z,24.45
2022-11-04T23:25:46.782Z,24.80
2022-11-04T23:28:13.440Z,25.38
2022-11-04T23:30:43.706Z,27.38
2022-11-04T23:33:13.057Z,27.55
2022-11-04T23:35:47.969Z,25.75
2022-11-04T23:38:14.694Z,26.85
2022-11-04T23:40:41.794Z,25.42
2022-11-04T23:43:09.216Z,26.67
2022-11-04T23:45:36.124Z,27.05
2022-11-04T23:48:02.838Z,25.55
2022-11-04T23:50:32.235Z,23.83
2022-11-04T23:52:59.596Z,25.23
2022-11-04T23:55:26.388Z,25.65
2022-11-04T23:57:53.095Z,26.00
